sensor_id;sensor_type;location;lat;lon;timestamp;P1;durP1;ratioP1;P2;durP2;ratioP2
7941;SDS011;4016;50.758;7.150;2023-04-15T00:03:23;3.20;;;2.90;;
7941;SDS011;4016;50.758;7.150;2023-04-15T00:08:23;3.83;;;3.10;;
7941;SDS011;4016;50.758;7.150;2023-04-15T00:13:24;5.53;;;3.13;;
7941;SDS011;4016;50.758;7.150;2023-04-15T00:18:24;5.77;;;3.43;;
7941;SDS011;4016;50.758;7.150;2023-04-15T00:23:25;4.47;;;3.03;;
7941;SDS011;4016;50.758;7.150;2023-04-15T00:28:26;3.43;;;3.10;;
7941;SDS011;4016;50.758;7.150;2023-04-15T00:33:27;4.47;;;2.83;;
7941;SDS011;4016;50.758;7.150;2023-04-15T00:38:27;3.93;;;2.97;;
7941;SDS011;4016;50.758;7.150;2023-04-15T00:43:28;3.03;;;2.70;;
7941;SDS011;4016;50.758;7.150;2023-04-15T00:48:28;5.37;;;3.20;;
7941;SDS011;4016;50.758;7.150;2023-04-15T00:53:29;4.53;;;2.63;;
7941;SDS011;4016;50.758;7.150;2023-04-15T00:58:29;5.80;;;3.00;;
7941;SDS011;4016;50.758;7.150;2023-04-15T01:03:30;3.40;;;3.10;;
7941;SDS011;4016;50.758;7.150;2023-04-15T01:08:30;4.37;;;2.93;;
7941;SDS011;4016;50.758;7.150;2023-04-15T01:13:31;8.33;;;3.20;;
7941;SDS011;4016;50.758;7.150;2023-04-15T01:18:33;2.60;;;2.40;;
7941;SDS011;4016;50.758;7.150;2023-04-15T01:23:35;3.70;;;2.87;;
7941;SDS011;4016;50.758;7.150;2023-04-15T01:28:37;4.00;;;3.23;;
7941;SDS011;4016;50.758;7.150;2023-04-15T01:33:38;4.73;;;3.10;;
7941;SDS011;4016;50.758;7.150;2023-04-15T01:38:40;3.03;;;2.77;;
7941;SDS011;4016;50.758;7.150;2023-04-15T01:43:40;2.67;;;2.47;;
7941;SDS011;4016;50.758;7.150;2023-04-15T01:48:41;4.53;;;3.10;;
7941;SDS011;4016;50.758;7.150;2023-04-15T01:53:41;2.83;;;2.30;;
7941;SDS011;4016;50.758;7.150;2023-04-15T01:58:42;4.23;;;2.80;;
7941;SDS011;4016;50.758;7.150;2023-04-15T02:03:42;3.10;;;2.83;;
7941;SDS011;4016;50.758;7.150;2023-04-15T02:08:43;3.93;;;3.03;;
7941;SDS011;4016;50.758;7.150;2023-04-15T02:13:43;4.87;;;2.93;;
7941;SDS011;4016;50.758;7.150;2023-04-15T02:18:44;3.13;;;2.70;;
7941;SDS011;4016;50.758;7.150;2023-04-15T02:23:45;3.23;;;2.70;;
7941;SDS011;4016;50.758;7.150;2023-04-15T02:28:47;5.83;;;2.90;;
7941;SDS011;4016;50.758;7.150;2023-04-15T02:33:50;4.03;;;2.60;;
7941;SDS011;4016;50.758;7.150;2023-04-15T02:38:50;3.73;;;2.67;;
7941;SDS011;4016;50.758;7.150;2023-04-15T02:43:51;4.13;;;3.03;;
7941;SDS011;4016;50.758;7.150;2023-04-15T02:48:52;3.87;;;2.80;;
7941;SDS011;4016;50.758;7.150;2023-04-15T02:53:52;2.57;;;2.33;;
7941;SDS011;4016;50.758;7.150;2023-04-15T02:58:53;3.03;;;2.73;;
7941;SDS011;4016;50.758;7.150;2023-04-15T03:03:55;4.47;;;2.17;;
7941;SDS011;4016;50.758;7.150;2023-04-15T03:08:55;2.97;;;2.67;;
7941;SDS011;4016;50.758;7.150;2023-04-15T03:13:56;2.27;;;2.17;;
7941;SDS011;4016;50.758;7.150;2023-04-15T03:18:57;2.60;;;2.40;;
7941;SDS011;4016;50.758;7.150;2023-04-15T03:23:57;5.73;;;3.30;;
7941;SDS011;4016;50.758;7.150;2023-04-15T03:28:58;3.80;;;2.47;;
7941;SDS011;4016;50.758;7.150;2023-04-15T03:33:58;2.53;;;2.27;;
7941;SDS011;4016;50.758;7.150;2023-04-15T03:38:58;2.73;;;2.43;;
7941;SDS011;4016;50.758;7.150;2023-04-15T03:44:01;2.47;;;2.27;;
7941;SDS011;4016;50.758;7.150;2023-04-15T03:49:01;3.00;;;2.23;;
7941;SDS011;4016;50.758;7.150;2023-04-15T03:54:01;2.63;;;2.43;;
7941;SDS011;4016;50.758;7.150;2023-04-15T03:59:02;2.30;;;2.10;;
7941;SDS011;4016;50.758;7.150;2023-04-15T04:04:02;3.50;;;2.40;;
7941;SDS011;4016;50.758;7.150;2023-04-15T04:09:03;2.40;;;2.20;;
7941;SDS011;4016;50.758;7.150;2023-04-15T04:14:03;2.80;;;2.60;;
7941;SDS011;4016;50.758;7.150;2023-04-15T04:19:04;3.37;;;2.17;;
7941;SDS011;4016;50.758;7.150;2023-04-15T04:24:05;2.97;;;2.57;;
7941;SDS011;4016;50.758;7.150;2023-04-15T04:29:05;3.23;;;2.57;;
7941;SDS011;4016;50.758;7.150;2023-04-15T04:34:06;3.37;;;2.03;;
7941;SDS011;4016;50.758;7.150;2023-04-15T04:39:06;2.60;;;2.20;;
7941;SDS011;4016;50.758;7.150;2023-04-15T04:44:07;2.97;;;2.67;;
7941;SDS011;4016;50.758;7.150;2023-04-15T04:49:07;3.37;;;2.23;;
7941;SDS011;4016;50.758;7.150;2023-04-15T04:54:07;2.93;;;2.57;;
7941;SDS011;4016;50.758;7.150;2023-04-15T04:59:08;2.70;;;2.50;;
7941;SDS011;4016;50.758;7.150;2023-04-15T05:04:08;2.93;;;2.30;;
7941;SDS011;4016;50.758;7.150;2023-04-15T05:09:09;2.60;;;2.13;;
7941;SDS011;4016;50.758;7.150;2023-04-15T05:14:10;4.20;;;2.80;;
7941;SDS011;4016;50.758;7.150;2023-04-15T05:19:10;1.97;;;1.87;;
7941;SDS011;4016;50.758;7.150;2023-04-15T05:24:10;5.90;;;2.83;;
7941;SDS011;4016;50.758;7.150;2023-04-15T05:29:11;4.00;;;2.90;;
7941;SDS011;4016;50.758;7.150;2023-04-15T05:34:11;4.67;;;2.73;;
7941;SDS011;4016;50.758;7.150;2023-04-15T05:39:12;2.70;;;2.50;;
7941;SDS011;4016;50.758;7.150;2023-04-15T05:44:12;4.60;;;2.87;;
7941;SDS011;4016;50.758;7.150;2023-04-15T05:49:12;4.00;;;2.77;;
7941;SDS011;4016;50.758;7.150;2023-04-15T05:54:13;6.03;;;3.70;;
7941;SDS011;4016;50.758;7.150;2023-04-15T05:59:13;5.63;;;3.30;;
7941;SDS011;4016;50.758;7.150;2023-04-15T06:04:14;4.40;;;3.30;;
7941;SDS011;4016;50.758;7.150;2023-04-15T06:09:14;4.77;;;3.43;;
7941;SDS011;4016;50.758;7.150;2023-04-15T06:14:14;4.17;;;3.80;;
7941;SDS011;4016;50.758;7.150;2023-04-15T06:19:15;6.37;;;4.33;;
7941;SDS011;4016;50.758;7.150;2023-04-15T06:24:17;5.77;;;4.40;;
7941;SDS011;4016;50.758;7.150;2023-04-15T06:29:17;5.17;;;4.17;;
7941;SDS011;4016;50.758;7.150;2023-04-15T06:34:18;10.10;;;4.10;;
7941;SDS011;4016;50.758;7.150;2023-04-15T06:39:18;6.07;;;4.13;;
7941;SDS011;4016;50.758;7.150;2023-04-15T06:44:18;6.00;;;4.77;;
7941;SDS011;4016;50.758;7.150;2023-04-15T06:49:19;9.57;;;4.23;;
7941;SDS011;4016;50.758;7.150;2023-04-15T06:54:19;6.63;;;4.00;;
7941;SDS011;4016;50.758;7.150;2023-04-15T06:59:20;9.00;;;4.90;;
7941;SDS011;4016;50.758;7.150;2023-04-15T07:04:20;6.50;;;4.47;;
7941;SDS011;4016;50.758;7.150;2023-04-15T07:09:21;8.70;;;5.13;;
7941;SDS011;4016;50.758;7.150;2023-04-15T07:14:22;7.90;;;4.77;;
7941;SDS011;4016;50.758;7.150;2023-04-15T07:19:23;6.10;;;4.83;;
7941;SDS011;4016;50.758;7.150;2023-04-15T07:24:23;8.87;;;5.30;;
7941;SDS011;4016;50.758;7.150;2023-04-15T07:29:25;6.40;;;5.07;;
7941;SDS011;4016;50.758;7.150;2023-04-15T07:34:26;7.00;;;5.03;;
7941;SDS011;4016;50.758;7.150;2023-04-15T07:39:26;7.07;;;4.97;;
7941;SDS011;4016;50.758;7.150;2023-04-15T07:44:28;7.60;;;4.97;;
7941;SDS011;4016;50.758;7.150;2023-04-15T07:49:29;5.63;;;5.03;;
7941;SDS011;4016;50.758;7.150;2023-04-15T07:54:29;5.77;;;5.10;;
7941;SDS011;4016;50.758;7.150;2023-04-15T07:59:29;6.67;;;5.13;;
7941;SDS011;4016;50.758;7.150;2023-04-15T08:04:32;5.67;;;4.77;;
7941;SDS011;4016;50.758;7.150;2023-04-15T08:09:32;6.80;;;5.23;;
7941;SDS011;4016;50.758;7.150;2023-04-15T08:14:33;8.23;;;5.40;;
7941;SDS011;4016;50.758;7.150;2023-04-15T08:19:34;6.73;;;5.07;;
7941;SDS011;4016;50.758;7.150;2023-04-15T08:24:34;6.10;;;5.03;;
7941;SDS011;4016;50.758;7.150;2023-04-15T08:29:35;5.73;;;4.87;;
7941;SDS011;4016;50.758;7.150;2023-04-15T08:34:36;5.23;;;4.57;;
7941;SDS011;4016;50.758;7.150;2023-04-15T08:39:36;11.53;;;5.40;;
7941;SDS011;4016;50.758;7.150;2023-04-15T08:44:37;4.30;;;3.90;;
7941;SDS011;4016;50.758;7.150;2023-04-15T08:49:39;5.30;;;4.23;;
7941;SDS011;4016;50.758;7.150;2023-04-15T08:54:41;6.40;;;4.93;;
7941;SDS011;4016;50.758;7.150;2023-04-15T08:59:42;4.30;;;2.87;;
7941;SDS011;4016;50.758;7.150;2023-04-15T09:04:43;5.47;;;3.03;;
7941;SDS011;4016;50.758;7.150;2023-04-15T09:09:43;2.53;;;2.33;;
7941;SDS011;4016;50.758;7.150;2023-04-15T09:14:45;3.23;;;2.23;;
7941;SDS011;4016;50.758;7.150;2023-04-15T09:19:47;3.53;;;2.63;;
7941;SDS011;4016;50.758;7.150;2023-04-15T09:24:47;2.40;;;2.23;;
7941;SDS011;4016;50.758;7.150;2023-04-15T09:29:52;3.77;;;2.63;;
7941;SDS011;4016;50.758;7.150;2023-04-15T09:34:53;2.67;;;2.43;;
7941;SDS011;4016;50.758;7.150;2023-04-15T09:39:53;2.17;;;2.07;;
7941;SDS011;4016;50.758;7.150;2023-04-15T09:44:54;3.00;;;2.10;;
7941;SDS011;4016;50.758;7.150;2023-04-15T09:49:55;2.63;;;2.20;;
7941;SDS011;4016;50.758;7.150;2023-04-15T09:54:57;2.40;;;2.20;;
7941;SDS011;4016;50.758;7.150;2023-04-15T09:59:58;1.80;;;1.67;;
7941;SDS011;4016;50.758;7.150;2023-04-15T10:04:58;2.63;;;1.90;;
7941;SDS011;4016;50.758;7.150;2023-04-15T10:10:00;2.03;;;1.93;;
7941;SDS011;4016;50.758;7.150;2023-04-15T10:15:03;1.90;;;1.80;;
7941;SDS011;4016;50.758;7.150;2023-04-15T10:20:04;1.50;;;1.40;;
7941;SDS011;4016;50.758;7.150;2023-04-15T10:25:06;1.77;;;1.67;;
7941;SDS011;4016;50.758;7.150;2023-04-15T10:30:06;2.03;;;1.93;;
7941;SDS011;4016;50.758;7.150;2023-04-15T10:35:08;2.60;;;2.40;;
7941;SDS011;4016;50.758;7.150;2023-04-15T10:40:22;2.73;;;2.53;;
7941;SDS011;4016;50.758;7.150;2023-04-15T10:45:26;2.20;;;2.10;;
7941;SDS011;4016;50.758;7.150;2023-04-15T10:50:29;2.07;;;1.97;;
7941;SDS011;4016;50.758;7.150;2023-04-15T10:55:31;2.80;;;2.60;;
7941;SDS011;4016;50.758;7.150;2023-04-15T11:00:33;2.27;;;2.13;;
7941;SDS011;4016;50.758;7.150;2023-04-15T11:10:51;3.20;;;2.90;;
7941;SDS011;4016;50.758;7.150;2023-04-15T11:15:54;6.60;;;3.60;;
7941;SDS011;4016;50.758;7.150;2023-04-15T11:20:58;4.07;;;3.53;;
7941;SDS011;4016;50.758;7.150;2023-04-15T11:26:02;3.83;;;3.43;;
7941;SDS011;4016;50.758;7.150;2023-04-15T11:31:15;3.33;;;3.03;;
7941;SDS011;4016;50.758;7.150;2023-04-15T11:36:18;3.20;;;2.93;;
7941;SDS011;4016;50.758;7.150;2023-04-15T11:41:19;3.57;;;3.27;;
7941;SDS011;4016;50.758;7.150;2023-04-15T11:46:27;3.37;;;3.07;;
7941;SDS011;4016;50.758;7.150;2023-04-15T11:51:33;3.50;;;3.20;;
7941;SDS011;4016;50.758;7.150;2023-04-15T11:56:34;2.93;;;2.73;;
7941;SDS011;4016;50.758;7.150;2023-04-15T12:01:35;4.13;;;3.27;;
7941;SDS011;4016;50.758;7.150;2023-04-15T12:06:38;3.53;;;3.23;;
7941;SDS011;4016;50.758;7.150;2023-04-15T12:16:46;3.30;;;3.00;;
7941;SDS011;4016;50.758;7.150;2023-04-15T12:21:48;2.60;;;2.40;;
7941;SDS011;4016;50.758;7.150;2023-04-15T12:26:50;3.07;;;2.53;;
7941;SDS011;4016;50.758;7.150;2023-04-15T12:37:03;2.87;;;2.67;;
7941;SDS011;4016;50.758;7.150;2023-04-15T12:42:05;4.10;;;3.70;;
7941;SDS011;4016;50.758;7.150;2023-04-15T12:47:06;3.17;;;2.87;;
7941;SDS011;4016;50.758;7.150;2023-04-15T12:52:08;3.17;;;2.90;;
7941;SDS011;4016;50.758;7.150;2023-04-15T12:57:08;3.83;;;3.10;;
7941;SDS011;4016;50.758;7.150;2023-04-15T13:02:09;3.50;;;3.20;;
7941;SDS011;4016;50.758;7.150;2023-04-15T13:07:10;3.73;;;3.30;;
7941;SDS011;4016;50.758;7.150;2023-04-15T13:12:12;3.50;;;3.20;;
7941;SDS011;4016;50.758;7.150;2023-04-15T13:17:13;3.70;;;3.40;;
7941;SDS011;4016;50.758;7.150;2023-04-15T13:22:13;3.70;;;3.40;;
7941;SDS011;4016;50.758;7.150;2023-04-15T13:27:14;3.90;;;3.60;;
7941;SDS011;4016;50.758;7.150;2023-04-15T13:32:15;3.80;;;3.50;;
7941;SDS011;4016;50.758;7.150;2023-04-15T13:37:15;4.30;;;3.43;;
7941;SDS011;4016;50.758;7.150;2023-04-15T13:42:16;3.87;;;3.57;;
7941;SDS011;4016;50.758;7.150;2023-04-15T13:47:17;4.47;;;3.83;;
7941;SDS011;4016;50.758;7.150;2023-04-15T13:52:18;5.47;;;4.70;;
7941;SDS011;4016;50.758;7.150;2023-04-15T13:57:18;4.87;;;4.10;;
7941;SDS011;4016;50.758;7.150;2023-04-15T14:02:19;5.00;;;4.50;;
7941;SDS011;4016;50.758;7.150;2023-04-15T14:07:21;5.40;;;4.90;;
7941;SDS011;4016;50.758;7.150;2023-04-15T14:12:22;5.00;;;4.50;;
7941;SDS011;4016;50.758;7.150;2023-04-15T14:17:22;5.97;;;5.40;;
7941;SDS011;4016;50.758;7.150;2023-04-15T14:22:23;6.33;;;5.73;;
7941;SDS011;4016;50.758;7.150;2023-04-15T14:27:23;6.53;;;5.93;;
7941;SDS011;4016;50.758;7.150;2023-04-15T14:32:24;6.20;;;5.57;;
7941;SDS011;4016;50.758;7.150;2023-04-15T14:37:25;6.40;;;5.60;;
7941;SDS011;4016;50.758;7.150;2023-04-15T14:42:26;6.03;;;5.43;;
7941;SDS011;4016;50.758;7.150;2023-04-15T14:47:26;6.47;;;5.87;;
7941;SDS011;4016;50.758;7.150;2023-04-15T14:52:26;6.50;;;5.87;;
7941;SDS011;4016;50.758;7.150;2023-04-15T14:57:27;5.90;;;5.20;;
7941;SDS011;4016;50.758;7.150;2023-04-15T15:02:27;5.13;;;4.63;;
7941;SDS011;4016;50.758;7.150;2023-04-15T15:07:28;6.23;;;5.63;;
7941;SDS011;4016;50.758;7.150;2023-04-15T15:12:28;5.73;;;5.23;;
7941;SDS011;4016;50.758;7.150;2023-04-15T15:17:29;6.07;;;5.47;;
7941;SDS011;4016;50.758;7.150;2023-04-15T15:22:30;6.50;;;5.83;;
7941;SDS011;4016;50.758;7.150;2023-04-15T15:27:30;5.57;;;4.97;;
7941;SDS011;4016;50.758;7.150;2023-04-15T15:32:31;5.30;;;4.57;;
7941;SDS011;4016;50.758;7.150;2023-04-15T15:37:31;5.37;;;4.80;;
7941;SDS011;4016;50.758;7.150;2023-04-15T15:42:32;5.27;;;4.77;;
7941;SDS011;4016;50.758;7.150;2023-04-15T15:47:33;7.03;;;5.37;;
7941;SDS011;4016;50.758;7.150;2023-04-15T15:52:33;5.57;;;4.63;;
7941;SDS011;4016;50.758;7.150;2023-04-15T15:57:34;6.73;;;4.10;;
7941;SDS011;4016;50.758;7.150;2023-04-15T16:02:35;4.47;;;4.07;;
7941;SDS011;4016;50.758;7.150;2023-04-15T16:07:36;5.27;;;4.77;;
7941;SDS011;4016;50.758;7.150;2023-04-15T16:12:36;5.97;;;4.37;;
7941;SDS011;4016;50.758;7.150;2023-04-15T16:17:36;5.17;;;4.47;;
7941;SDS011;4016;50.758;7.150;2023-04-15T16:22:37;5.00;;;4.50;;
7941;SDS011;4016;50.758;7.150;2023-04-15T16:27:38;4.93;;;4.43;;
7941;SDS011;4016;50.758;7.150;2023-04-15T16:32:38;5.33;;;4.30;;
7941;SDS011;4016;50.758;7.150;2023-04-15T16:37:39;5.37;;;4.50;;
7941;SDS011;4016;50.758;7.150;2023-04-15T16:42:39;3.90;;;3.50;;
7941;SDS011;4016;50.758;7.150;2023-04-15T16:47:42;5.40;;;3.97;;
7941;SDS011;4016;50.758;7.150;2023-04-15T16:52:42;4.30;;;3.90;;
7941;SDS011;4016;50.758;7.150;2023-04-15T16:57:43;5.83;;;4.80;;
7941;SDS011;4016;50.758;7.150;2023-04-15T17:02:43;8.73;;;5.53;;
7941;SDS011;4016;50.758;7.150;2023-04-15T17:07:44;6.17;;;5.00;;
7941;SDS011;4016;50.758;7.150;2023-04-15T17:12:44;5.17;;;4.67;;
7941;SDS011;4016;50.758;7.150;2023-04-15T17:17:45;6.10;;;4.73;;
7941;SDS011;4016;50.758;7.150;2023-04-15T17:22:46;5.37;;;4.80;;
7941;SDS011;4016;50.758;7.150;2023-04-15T17:27:47;6.27;;;5.07;;
7941;SDS011;4016;50.758;7.150;2023-04-15T17:32:47;6.43;;;4.97;;
7941;SDS011;4016;50.758;7.150;2023-04-15T17:37:48;6.00;;;5.40;;
7941;SDS011;4016;50.758;7.150;2023-04-15T17:42:48;8.23;;;5.37;;
7941;SDS011;4016;50.758;7.150;2023-04-15T17:47:49;8.37;;;5.87;;
7941;SDS011;4016;50.758;7.150;2023-04-15T17:52:49;5.97;;;5.37;;
7941;SDS011;4016;50.758;7.150;2023-04-15T17:57:50;7.03;;;5.87;;
7941;SDS011;4016;50.758;7.150;2023-04-15T18:02:50;7.40;;;5.53;;
7941;SDS011;4016;50.758;7.150;2023-04-15T18:07:51;6.97;;;5.27;;
7941;SDS011;4016;50.758;7.150;2023-04-15T18:12:52;6.70;;;5.73;;
7941;SDS011;4016;50.758;7.150;2023-04-15T18:17:52;8.53;;;6.27;;
7941;SDS011;4016;50.758;7.150;2023-04-15T18:22:53;7.13;;;6.40;;
7941;SDS011;4016;50.758;7.150;2023-04-15T18:27:54;7.67;;;6.90;;
7941;SDS011;4016;50.758;7.150;2023-04-15T18:32:55;9.57;;;7.73;;
7941;SDS011;4016;50.758;7.150;2023-04-15T18:37:56;7.23;;;6.53;;
7941;SDS011;4016;50.758;7.150;2023-04-15T18:42:57;8.80;;;7.67;;
7941;SDS011;4016;50.758;7.150;2023-04-15T18:47:57;8.63;;;7.73;;
7941;SDS011;4016;50.758;7.150;2023-04-15T18:52:58;10.67;;;8.60;;
7941;SDS011;4016;50.758;7.150;2023-04-15T18:57:58;7.97;;;7.17;;
7941;SDS011;4016;50.758;7.150;2023-04-15T19:02:59;7.93;;;6.73;;
7941;SDS011;4016;50.758;7.150;2023-04-15T19:07:59;7.90;;;7.07;;
7941;SDS011;4016;50.758;7.150;2023-04-15T19:12:59;7.07;;;6.13;;
7941;SDS011;4016;50.758;7.150;2023-04-15T19:18:00;8.07;;;6.83;;
7941;SDS011;4016;50.758;7.150;2023-04-15T19:23:00;8.60;;;7.47;;
7941;SDS011;4016;50.758;7.150;2023-04-15T19:28:01;11.90;;;8.57;;
7941;SDS011;4016;50.758;7.150;2023-04-15T19:33:01;12.43;;;8.83;;
7941;SDS011;4016;50.758;7.150;2023-04-15T19:38:02;14.63;;;11.03;;
7941;SDS011;4016;50.758;7.150;2023-04-15T19:43:03;11.70;;;9.60;;
7941;SDS011;4016;50.758;7.150;2023-04-15T19:48:03;10.20;;;8.80;;
7941;SDS011;4016;50.758;7.150;2023-04-15T19:53:05;9.80;;;7.80;;
7941;SDS011;4016;50.758;7.150;2023-04-15T19:58:05;8.03;;;6.60;;
7941;SDS011;4016;50.758;7.150;2023-04-15T20:03:05;9.90;;;6.87;;
7941;SDS011;4016;50.758;7.150;2023-04-15T20:08:06;7.37;;;6.57;;
7941;SDS011;4016;50.758;7.150;2023-04-15T20:13:07;10.13;;;8.17;;
7941;SDS011;4016;50.758;7.150;2023-04-15T20:18:07;9.60;;;7.83;;
7941;SDS011;4016;50.758;7.150;2023-04-15T20:23:07;10.40;;;8.73;;
7941;SDS011;4016;50.758;7.150;2023-04-15T20:28:08;9.93;;;8.20;;
7941;SDS011;4016;50.758;7.150;2023-04-15T20:33:09;8.77;;;7.83;;
7941;SDS011;4016;50.758;7.150;2023-04-15T20:38:10;9.10;;;7.40;;
7941;SDS011;4016;50.758;7.150;2023-04-15T20:43:11;10.27;;;8.23;;
7941;SDS011;4016;50.758;7.150;2023-04-15T20:48:12;14.90;;;9.00;;
7941;SDS011;4016;50.758;7.150;2023-04-15T20:53:13;13.10;;;9.13;;
7941;SDS011;4016;50.758;7.150;2023-04-15T20:58:13;10.40;;;7.90;;
7941;SDS011;4016;50.758;7.150;2023-04-15T21:03:13;10.37;;;8.70;;
7941;SDS011;4016;50.758;7.150;2023-04-15T21:08:14;12.03;;;8.73;;
7941;SDS011;4016;50.758;7.150;2023-04-15T21:13:14;10.63;;;8.20;;
7941;SDS011;4016;50.758;7.150;2023-04-15T21:18:16;10.70;;;8.57;;
7941;SDS011;4016;50.758;7.150;2023-04-15T21:23:16;11.70;;;8.70;;
7941;SDS011;4016;50.758;7.150;2023-04-15T21:28:17;10.67;;;8.97;;
7941;SDS011;4016;50.758;7.150;2023-04-15T21:33:17;14.60;;;10.17;;
7941;SDS011;4016;50.758;7.150;2023-04-15T21:38:20;12.63;;;9.90;;
7941;SDS011;4016;50.758;7.150;2023-04-15T21:43:21;11.87;;;8.53;;
7941;SDS011;4016;50.758;7.150;2023-04-15T21:48:24;10.87;;;9.33;;
7941;SDS011;4016;50.758;7.150;2023-04-15T21:53:24;12.17;;;8.77;;
7941;SDS011;4016;50.758;7.150;2023-04-15T21:58:25;12.43;;;8.80;;
7941;SDS011;4016;50.758;7.150;2023-04-15T22:03:28;12.40;;;9.27;;
7941;SDS011;4016;50.758;7.150;2023-04-15T22:08:32;12.77;;;9.53;;
7941;SDS011;4016;50.758;7.150;2023-04-15T22:13:33;14.20;;;10.07;;
7941;SDS011;4016;50.758;7.150;2023-04-15T22:18:33;12.17;;;9.93;;
7941;SDS011;4016;50.758;7.150;2023-04-15T22:23:34;15.23;;;10.73;;
7941;SDS011;4016;50.758;7.150;2023-04-15T22:28:34;14.43;;;10.80;;
7941;SDS011;4016;50.758;7.150;2023-04-15T22:33:35;15.03;;;10.57;;
7941;SDS011;4016;50.758;7.150;2023-04-15T22:38:35;11.10;;;8.03;;
7941;SDS011;4016;50.758;7.150;2023-04-15T22:43:36;13.27;;;9.40;;
7941;SDS011;4016;50.758;7.150;2023-04-15T22:48:36;14.73;;;9.30;;
7941;SDS011;4016;50.758;7.150;2023-04-15T22:53:37;15.43;;;10.47;;
7941;SDS011;4016;50.758;7.150;2023-04-15T22:58:37;17.77;;;10.80;;
7941;SDS011;4016;50.758;7.150;2023-04-15T23:03:37;13.07;;;8.60;;
7941;SDS011;4016;50.758;7.150;2023-04-15T23:08:38;10.43;;;8.20;;
7941;SDS011;4016;50.758;7.150;2023-04-15T23:13:38;13.47;;;7.93;;
7941;SDS011;4016;50.758;7.150;2023-04-15T23:18:39;13.67;;;7.43;;
7941;SDS011;4016;50.758;7.150;2023-04-15T23:23:39;11.10;;;7.63;;
7941;SDS011;4016;50.758;7.150;2023-04-15T23:28:39;9.30;;;7.70;;
7941;SDS011;4016;50.758;7.150;2023-04-15T23:33:40;17.80;;;9.53;;
7941;SDS011;4016;50.758;7.150;2023-04-15T23:38:40;14.63;;;9.17;;
7941;SDS011;4016;50.758;7.150;2023-04-15T23:43:41;14.20;;;9.23;;
7941;SDS011;4016;50.758;7.150;2023-04-15T23:48:41;14.30;;;8.83;;
7941;SDS011;4016;50.758;7.150;2023-04-15T23:53:41;18.07;;;9.97;;
7941;SDS011;4016;50.758;7.150;2023-04-15T23:58:42;20.07;;;9.17;;
